createdAt,value
2019-01-16T00:01:46.804Z,7.13
2019-01-16T00:04:25.352Z,7.23
2019-01-16T00:07:15.358Z,7.53
2019-01-16T00:10:03.355Z,7.37
2019-01-16T00:12:47.842Z,7.83
2019-01-16T00:15:40.400Z,7.23
2019-01-16T00:18:21.124Z,7.47
2019-01-16T00:21:04.296Z,7.80
2019-01-16T00:23:58.370Z,8.90
2019-01-16T00:26:49.142Z,7.73
2019-01-16T00:29:39.869Z,7.77
2019-01-16T00:32:27.365Z,6.77
2019-01-16T00:35:14.678Z,7.87
2019-01-16T00:38:06.751Z,7.83
2019-01-16T00:41:18.754Z,8.33
2019-01-16T00:44:02.577Z,8.57
2019-01-16T00:46:53.269Z,8.20
2019-01-16T00:49:40.559Z,8.23
2019-01-16T00:52:31.927Z,7.87
2019-01-16T00:55:21.807Z,6.97
2019-01-16T00:58:11.455Z,7.70
2019-01-16T01:00:51.090Z,6.93
2019-01-16T01:03:37.094Z,7.17
2019-01-16T01:06:26.712Z,7.00
2019-01-16T01:09:13.774Z,7.87
2019-01-16T01:12:07.503Z,7.40
2019-01-16T01:14:57.338Z,6.77
2019-01-16T01:17:48.044Z,7.10
2019-01-16T01:20:50.629Z,7.10
2019-01-16T01:23:41.624Z,7.10
2019-01-16T01:26:47.757Z,7.23
2019-01-16T01:29:37.092Z,7.50
2019-01-16T01:32:30.884Z,7.53
2019-01-16T01:35:33.783Z,6.97
2019-01-16T01:38:33.948Z,6.67
2019-01-16T01:41:25.296Z,7.13
2019-01-16T01:44:22.059Z,6.80
2019-01-16T01:47:19.576Z,6.70
2019-01-16T01:50:09.316Z,7.87
2019-01-16T01:52:59.053Z,6.43
2019-01-16T01:55:56.713Z,6.67
2019-01-16T01:58:46.413Z,7.47
2019-01-16T02:01:37.156Z,7.07
2019-01-16T02:04:27.947Z,6.23
2019-01-16T02:07:27.983Z,6.83
2019-01-16T02:10:22.577Z,6.80
2019-01-16T02:13:23.479Z,6.70
2019-01-16T02:16:17.015Z,6.03
2019-01-16T02:19:07.711Z,5.67
2019-01-16T02:21:57.423Z,5.27
2019-01-16T02:24:47.041Z,5.57
2019-01-16T02:27:36.829Z,5.60
2019-01-16T02:30:20.282Z,5.03
2019-01-16T02:33:26.380Z,4.90
2019-01-16T02:36:22.759Z,4.60
2019-01-16T02:39:12.281Z,4.20
2019-01-16T02:42:03.959Z,4.20
2019-01-16T02:44:53.651Z,4.00
2019-01-16T02:48:03.232Z,3.33
2019-01-16T02:50:52.914Z,3.73
2019-01-16T02:53:49.680Z,3.37
2019-01-16T02:56:40.420Z,3.23
2019-01-16T02:59:21.943Z,3.07
2019-01-16T03:02:11.619Z,2.80
2019-01-16T03:05:02.328Z,3.20
2019-01-16T03:08:02.378Z,2.33
2019-01-16T03:10:43.073Z,2.60
2019-01-16T03:13:42.934Z,2.33
2019-01-16T03:16:48.828Z,2.27
2019-01-16T03:19:41.754Z,2.17
2019-01-16T03:22:41.956Z,1.90
2019-01-16T03:25:31.665Z,2.10
2019-01-16T03:28:25.794Z,2.47
2019-01-16T03:31:12.529Z,2.50
2019-01-16T03:33:55.448Z,2.00
2019-01-16T03:36:57.575Z,2.20
2019-01-16T03:39:38.784Z,1.93
2019-01-16T03:42:38.337Z,1.47
2019-01-16T03:45:35.185Z,2.10
2019-01-16T03:48:26.793Z,2.07
2019-01-16T03:51:24.547Z,2.20
2019-01-16T03:54:19.143Z,1.80
2019-01-16T03:57:09.846Z,1.90
2019-01-16T03:59:52.719Z,2.23
2019-01-16T04:02:34.115Z,2.23
2019-01-16T04:05:28.493Z,1.93
2019-01-16T04:08:22.691Z,1.67
2019-01-16T04:11:23.756Z,2.23
2019-01-16T04:14:13.595Z,2.60
2019-01-16T04:17:16.434Z,2.20
2019-01-16T04:20:16.453Z,1.97
2019-01-16T04:23:11.452Z,2.17
2019-01-16T04:26:01.091Z,1.87
2019-01-16T04:29:08.955Z,2.50
2019-01-16T04:32:10.680Z,2.27
2019-01-16T04:35:01.420Z,2.00
2019-01-16T04:37:40.536Z,1.97
2019-01-16T04:40:31.587Z,1.70
2019-01-16T04:43:21.195Z,1.33
2019-01-16T04:46:30.297Z,1.50
2019-01-16T04:49:30.589Z,1.40
2019-01-16T04:52:17.546Z,1.67
2019-01-16T04:55:12.587Z,1.43
2019-01-16T04:58:02.169Z,1.67
2019-01-16T05:00:45.648Z,1.70
2019-01-16T05:03:39.727Z,1.80
2019-01-16T05:06:39.495Z,1.80
2019-01-16T05:09:28.517Z,1.87
2019-01-16T05:12:17.868Z,1.43
2019-01-16T05:15:07.531Z,1.30
2019-01-16T05:17:57.197Z,1.63
2019-01-16T05:21:00.376Z,1.60
2019-01-16T05:23:49.909Z,1.60
2019-01-16T05:26:43.631Z,1.47
2019-01-16T05:29:40.504Z,1.57
2019-01-16T05:32:30.329Z,1.37
2019-01-16T05:35:36.489Z,1.80
2019-01-16T05:38:30.192Z,2.00
2019-01-16T05:41:33.231Z,1.53
2019-01-16T05:44:30.145Z,1.73
2019-01-16T05:47:30.197Z,1.40
2019-01-16T05:50:27.412Z,1.50
2019-01-16T05:53:16.952Z,1.50
2019-01-16T05:56:04.333Z,1.30
2019-01-16T05:58:44.524Z,2.20
2019-01-16T06:01:45.142Z,1.37
2019-01-16T06:04:29.362Z,1.93
2019-01-16T06:07:11.372Z,2.00
2019-01-16T06:10:20.590Z,2.20
2019-01-16T06:13:02.582Z,1.93
2019-01-16T06:16:02.451Z,1.93
2019-01-16T06:18:52.003Z,2.00
2019-01-16T06:21:48.915Z,1.90
2019-01-16T06:24:39.664Z,1.87
2019-01-16T06:27:30.438Z,1.77
2019-01-16T06:30:12.574Z,1.50
2019-01-16T06:33:18.730Z,1.50
2019-01-16T06:36:08.081Z,1.80
2019-01-16T06:39:17.265Z,1.80
2019-01-16T06:42:23.347Z,1.93
2019-01-16T06:45:13.022Z,2.07
2019-01-16T06:48:03.740Z,2.53
2019-01-16T06:50:53.070Z,2.17
2019-01-16T06:53:42.699Z,2.73
2019-01-16T06:56:31.723Z,2.43
2019-01-16T06:59:31.688Z,2.63
2019-01-16T07:02:17.276Z,3.17
2019-01-16T07:05:08.006Z,3.30
2019-01-16T07:07:58.750Z,3.13
2019-01-16T07:11:07.897Z,5.03
2019-01-16T07:13:57.729Z,2.47
2019-01-16T07:16:48.399Z,2.83
2019-01-16T07:19:39.120Z,3.27
2019-01-16T07:22:37.008Z,3.77
2019-01-16T07:25:26.923Z,4.43
2019-01-16T07:28:19.837Z,4.10
2019-01-16T07:31:07.227Z,3.17
2019-01-16T07:33:56.909Z,3.30
2019-01-16T07:36:45.397Z,3.67
2019-01-16T07:39:33.302Z,3.00
2019-01-16T07:42:23.006Z,3.47
2019-01-16T07:45:03.158Z,3.50
2019-01-16T07:48:00.818Z,3.50
2019-01-16T07:50:54.586Z,3.37
2019-01-16T07:53:52.917Z,3.20
2019-01-16T07:56:32.906Z,3.20
2019-01-16T07:59:23.743Z,3.90
2019-01-16T08:02:22.032Z,3.50
2019-01-16T08:05:12.780Z,3.87
2019-01-16T08:08:25.335Z,3.77
2019-01-16T08:11:17.479Z,4.63
2019-01-16T08:14:05.689Z,4.97
2019-01-16T08:17:00.350Z,4.00
2019-01-16T08:19:49.920Z,4.13
2019-01-16T08:22:32.487Z,3.47
2019-01-16T08:25:29.834Z,4.70
2019-01-16T08:28:20.572Z,3.60
2019-01-16T08:31:11.314Z,4.30
2019-01-16T08:34:06.052Z,3.70
2019-01-16T08:36:56.831Z,3.97
2019-01-16T08:39:53.533Z,4.23
2019-01-16T08:42:53.505Z,4.10
2019-01-16T08:45:45.110Z,3.47
2019-01-16T08:48:35.437Z,4.70
2019-01-16T08:51:25.214Z,3.77
2019-01-16T08:54:14.748Z,4.30
2019-01-16T08:56:55.880Z,4.40
2019-01-16T08:59:45.572Z,5.13
2019-01-16T09:02:36.768Z,4.40
2019-01-16T09:05:28.604Z,4.27
2019-01-16T09:08:18.172Z,3.87
2019-01-16T09:11:14.416Z,4.47
2019-01-16T09:13:57.324Z,3.70
2019-01-16T09:16:54.626Z,4.00
2019-01-16T09:19:38.427Z,4.47
2019-01-16T09:22:32.266Z,4.33
2019-01-16T09:25:26.272Z,4.27
2019-01-16T09:28:29.390Z,5.37
2019-01-16T09:31:19.111Z,5.03
2019-01-16T09:34:28.529Z,5.20
2019-01-16T09:37:11.820Z,5.50
2019-01-16T09:39:58.333Z,5.27
2019-01-16T09:42:43.415Z,4.80
2019-01-16T09:45:33.046Z,4.10
2019-01-16T09:48:23.779Z,4.87
2019-01-16T09:51:09.243Z,4.73
2019-01-16T09:53:58.907Z,5.37
2019-01-16T09:56:47.587Z,5.00
2019-01-16T09:59:41.157Z,4.60
2019-01-16T10:02:30.936Z,5.13
2019-01-16T10:05:21.780Z,5.50
2019-01-16T10:08:12.531Z,5.50
2019-01-16T10:11:12.566Z,5.17
2019-01-16T10:13:54.151Z,5.40
2019-01-16T10:16:53.273Z,5.10
2019-01-16T10:19:42.840Z,5.07
2019-01-16T10:22:32.637Z,5.83
2019-01-16T10:25:12.276Z,4.50
2019-01-16T10:27:53.409Z,4.27
2019-01-16T10:30:42.852Z,4.30
2019-01-16T10:33:24.565Z,4.70
2019-01-16T10:36:21.432Z,3.87
2019-01-16T10:39:30.690Z,4.93
2019-01-16T10:42:11.478Z,4.50
2019-01-16T10:44:59.475Z,3.70
2019-01-16T10:47:50.220Z,6.90
2019-01-16T10:50:39.872Z,4.07
2019-01-16T10:53:48.981Z,3.93
2019-01-16T10:56:41.614Z,4.13
2019-01-16T10:59:42.937Z,4.47
2019-01-16T11:02:25.842Z,3.83
2019-01-16T11:05:15.648Z,3.93
2019-01-16T11:08:00.889Z,3.77
2019-01-16T11:11:06.907Z,3.43
2019-01-16T11:13:56.616Z,4.00
2019-01-16T11:16:46.101Z,3.70
2019-01-16T11:19:35.640Z,3.43
2019-01-16T11:22:17.861Z,4.07
2019-01-16T11:25:09.471Z,3.70
2019-01-16T11:27:48.309Z,4.00
2019-01-16T11:30:45.184Z,3.37
2019-01-16T11:33:40.103Z,4.00
2019-01-16T11:36:28.057Z,3.87
2019-01-16T11:39:15.971Z,3.23
2019-01-16T11:42:09.657Z,3.73
2019-01-16T11:44:54.403Z,4.37
2019-01-16T11:47:49.975Z,4.57
2019-01-16T11:50:37.046Z,5.07
2019-01-16T11:53:37.153Z,4.07
2019-01-16T11:56:18.415Z,4.73
2019-01-16T11:59:15.472Z,5.00
2019-01-16T12:02:21.271Z,4.20
2019-01-16T12:05:12.298Z,4.37
2019-01-16T12:08:02.060Z,4.20
2019-01-16T12:10:55.833Z,4.30
2019-01-16T12:13:46.554Z,4.07
2019-01-16T12:16:37.306Z,4.37
2019-01-16T12:19:25.249Z,4.13
2019-01-16T12:22:28.188Z,4.20
2019-01-16T12:25:25.490Z,4.23
2019-01-16T12:28:08.726Z,4.33
2019-01-16T12:30:49.869Z,5.47
2019-01-16T12:33:39.498Z,4.10
2019-01-16T12:36:36.600Z,5.33
2019-01-16T12:39:46.635Z,5.13
2019-01-16T12:42:43.485Z,4.03
2019-01-16T12:45:33.169Z,3.50
2019-01-16T12:48:13.360Z,3.83
2019-01-16T12:51:03.036Z,3.90
2019-01-16T12:53:53.032Z,3.90
2019-01-16T12:56:52.763Z,3.60
2019-01-16T12:59:49.643Z,4.13
2019-01-16T13:02:50.631Z,4.07
2019-01-16T13:05:53.580Z,3.40
2019-01-16T13:08:47.599Z,3.07
2019-01-16T13:11:37.612Z,2.80
2019-01-16T13:14:34.689Z,3.27
2019-01-16T13:17:30.345Z,3.27
2019-01-16T13:20:16.964Z,3.30
2019-01-16T13:22:58.674Z,4.27
2019-01-16T13:25:55.478Z,3.07
2019-01-16T13:28:38.616Z,3.70
2019-01-16T13:31:29.080Z,3.10
2019-01-16T13:34:19.784Z,3.10
2019-01-16T13:37:13.312Z,2.77
2019-01-16T13:40:02.327Z,3.00
2019-01-16T13:42:51.754Z,3.30
2019-01-16T13:45:41.484Z,3.50
2019-01-16T13:48:52.564Z,3.80
2019-01-16T13:51:39.778Z,3.37
2019-01-16T13:54:24.579Z,3.53
2019-01-16T13:57:21.496Z,3.20
2019-01-16T14:00:12.228Z,3.23
2019-01-16T14:03:02.974Z,3.00
2019-01-16T14:06:01.545Z,3.93
2019-01-16T14:09:01.678Z,4.10
2019-01-16T14:11:51.270Z,3.80
2019-01-16T14:14:48.077Z,3.97
2019-01-16T14:17:44.669Z,3.70
2019-01-16T14:20:51.378Z,3.90
2019-01-16T14:23:55.473Z,3.67
2019-01-16T14:26:45.239Z,3.43
2019-01-16T14:29:33.761Z,3.77
2019-01-16T14:32:33.787Z,3.87
2019-01-16T14:35:23.904Z,3.67
2019-01-16T14:38:13.569Z,3.93
2019-01-16T14:41:04.375Z,3.73
2019-01-16T14:44:01.142Z,3.67
2019-01-16T14:47:01.301Z,4.13
2019-01-16T14:49:52.148Z,3.77
2019-01-16T14:52:41.772Z,4.17
2019-01-16T14:55:31.382Z,4.07
2019-01-16T14:58:31.519Z,4.03
2019-01-16T15:01:25.698Z,3.67
2019-01-16T15:04:25.734Z,4.23
2019-01-16T15:07:16.486Z,3.37
2019-01-16T15:10:07.216Z,3.87
2019-01-16T15:12:58.024Z,3.80
2019-01-16T15:15:52.496Z,3.53
2019-01-16T15:18:49.349Z,3.50
2019-01-16T15:21:42.918Z,3.90
2019-01-16T15:24:33.744Z,3.33
2019-01-16T15:27:17.370Z,3.20
2019-01-16T15:30:07.432Z,3.17
2019-01-16T15:32:57.099Z,4.13
2019-01-16T15:35:46.670Z,3.37
2019-01-16T15:38:40.412Z,2.87
2019-01-16T15:41:34.209Z,3.63
2019-01-16T15:44:24.147Z,4.40
2019-01-16T15:47:13.875Z,3.87
2019-01-16T15:50:03.471Z,3.67
2019-01-16T15:53:01.053Z,3.60
2019-01-16T15:55:58.092Z,3.73
2019-01-16T15:58:47.769Z,3.50
2019-01-16T16:01:41.541Z,3.30
2019-01-16T16:04:33.397Z,3.77
2019-01-16T16:07:23.831Z,3.93
2019-01-16T16:10:14.568Z,4.00
2019-01-16T16:13:03.750Z,3.77
2019-01-16T16:15:54.123Z,3.97
2019-01-16T16:18:37.795Z,4.23
2019-01-16T16:21:27.308Z,4.50
2019-01-16T16:24:33.460Z,3.93
2019-01-16T16:27:18.686Z,4.10
2019-01-16T16:30:09.832Z,3.93
2019-01-16T16:33:00.605Z,3.93
2019-01-16T16:36:00.226Z,3.67
2019-01-16T16:38:54.306Z,4.23
2019-01-16T16:41:42.057Z,3.97
2019-01-16T16:44:42.073Z,3.87
2019-01-16T16:47:38.902Z,3.53
2019-01-16T16:50:29.897Z,4.03
2019-01-16T16:53:17.663Z,4.17
2019-01-16T16:56:17.020Z,3.97
2019-01-16T16:59:04.061Z,3.73
2019-01-16T17:02:01.494Z,5.20
2019-01-16T17:04:51.077Z,3.70
2019-01-16T17:07:41.288Z,4.03
2019-01-16T17:10:20.945Z,3.97
2019-01-16T17:13:08.456Z,3.80
2019-01-16T17:15:52.940Z,3.83
2019-01-16T17:18:58.799Z,5.00
2019-01-16T17:21:39.571Z,4.23
2019-01-16T17:24:27.175Z,3.87
2019-01-16T17:27:16.883Z,4.03
2019-01-16T17:30:10.611Z,3.60
2019-01-16T17:32:56.335Z,3.73
2019-01-16T17:35:45.819Z,3.33
2019-01-16T17:38:39.629Z,4.10
2019-01-16T17:41:32.708Z,3.47
2019-01-16T17:44:24.291Z,3.67
2019-01-16T17:47:27.144Z,3.80
2019-01-16T17:50:23.976Z,3.90
2019-01-16T17:53:24.086Z,2.90
2019-01-16T17:56:27.115Z,3.70
2019-01-16T17:59:18.090Z,3.40
2019-01-16T18:02:02.566Z,3.03
2019-01-16T18:04:45.401Z,3.63
2019-01-16T18:07:36.190Z,3.83
2019-01-16T18:10:27.411Z,4.43
2019-01-16T18:13:27.624Z,3.40
2019-01-16T18:16:24.568Z,3.90
2019-01-16T18:19:14.306Z,4.40
2019-01-16T18:22:04.028Z,4.07
2019-01-16T18:24:53.597Z,4.03
2019-01-16T18:27:47.392Z,4.10
2019-01-16T18:30:38.297Z,3.90
2019-01-16T18:33:35.924Z,3.30
2019-01-16T18:36:25.127Z,3.20
2019-01-16T18:39:09.391Z,3.93
2019-01-16T18:42:03.498Z,3.30
2019-01-16T18:44:52.337Z,4.00
2019-01-16T18:47:52.502Z,3.53
2019-01-16T18:50:38.028Z,3.70
2019-01-16T18:53:29.093Z,3.43
2019-01-16T18:56:24.639Z,4.23
2019-01-16T18:59:18.607Z,3.60
2019-01-16T19:02:08.312Z,3.67
2019-01-16T19:04:57.496Z,3.37
2019-01-16T19:07:47.579Z,3.57
2019-01-16T19:10:29.075Z,3.60
2019-01-16T19:13:15.236Z,3.63
2019-01-16T19:16:12.140Z,3.63
2019-01-16T19:19:03.509Z,3.73
2019-01-16T19:22:03.611Z,3.10
2019-01-16T19:24:43.374Z,3.93
2019-01-16T19:27:43.404Z,3.73
2019-01-16T19:30:40.289Z,3.80
2019-01-16T19:33:26.358Z,3.73
2019-01-16T19:36:14.482Z,3.90
2019-01-16T19:39:04.312Z,3.87
2019-01-16T19:41:57.316Z,3.63
2019-01-16T19:44:47.109Z,3.60
2019-01-16T19:47:36.805Z,3.50
2019-01-16T19:50:31.115Z,4.17
2019-01-16T19:53:15.014Z,4.47
2019-01-16T19:56:01.232Z,5.00
2019-01-16T19:58:51.353Z,4.47
2019-01-16T20:01:41.502Z,4.33
2019-01-16T20:04:32.242Z,3.87
2019-01-16T20:07:25.010Z,3.60
2019-01-16T20:10:28.865Z,5.00
2019-01-16T20:13:18.432Z,4.00
2019-01-16T20:16:15.396Z,3.80
2019-01-16T20:19:04.764Z,4.50
2019-01-16T20:21:54.258Z,4.27
2019-01-16T20:24:45.073Z,4.00
2019-01-16T20:27:34.755Z,5.00
2019-01-16T20:30:27.726Z,4.50
2019-01-16T20:33:13.465Z,4.57
2019-01-16T20:36:09.519Z,4.53
2019-01-16T20:38:56.930Z,5.30
2019-01-16T20:41:50.674Z,4.50
2019-01-16T20:44:59.993Z,4.60
2019-01-16T20:47:49.507Z,4.73
2019-01-16T20:50:40.264Z,6.73
2019-01-16T20:53:37.033Z,5.23
2019-01-16T20:56:26.965Z,5.77
2019-01-16T20:59:30.072Z,5.07
2019-01-16T21:02:23.641Z,4.80
2019-01-16T21:05:13.316Z,5.20
2019-01-16T21:08:02.926Z,5.20
2019-01-16T21:10:49.949Z,4.93
2019-01-16T21:13:40.662Z,5.47
2019-01-16T21:16:31.404Z,4.67
2019-01-16T21:19:26.482Z,4.70
2019-01-16T21:22:16.244Z,5.57
2019-01-16T21:25:06.288Z,6.37
2019-01-16T21:27:56.043Z,5.97
2019-01-16T21:30:58.901Z,6.97
2019-01-16T21:33:52.666Z,6.20
2019-01-16T21:36:42.426Z,5.50
2019-01-16T21:39:36.152Z,5.37
2019-01-16T21:42:18.484Z,5.80
2019-01-16T21:45:18.415Z,5.97
2019-01-16T21:48:24.661Z,4.70
2019-01-16T21:51:21.503Z,4.70
2019-01-16T21:54:18.507Z,4.23
2019-01-16T21:57:09.257Z,4.90
2019-01-16T22:00:00.038Z,4.60
2019-01-16T22:02:54.064Z,4.23
2019-01-16T22:05:44.781Z,4.50
2019-01-16T22:08:29.988Z,3.80
2019-01-16T22:11:36.054Z,3.57
2019-01-16T22:14:29.809Z,3.50
2019-01-16T22:17:30.347Z,3.97
2019-01-16T22:20:23.866Z,3.00
2019-01-16T22:23:17.432Z,5.13
2019-01-16T22:26:07.083Z,3.93
2019-01-16T22:28:56.849Z,4.43
2019-01-16T22:31:45.996Z,4.70
2019-01-16T22:34:39.998Z,4.33
2019-01-16T22:37:36.556Z,6.00
2019-01-16T22:40:46.391Z,4.30
2019-01-16T22:43:43.176Z,6.13
2019-01-16T22:46:37.115Z,4.77
2019-01-16T22:49:16.647Z,4.40
2019-01-16T22:52:07.436Z,6.57
2019-01-16T22:54:56.998Z,5.33
2019-01-16T22:57:50.841Z,5.23
2019-01-16T23:00:49.404Z,6.03
2019-01-16T23:03:46.264Z,5.93
2019-01-16T23:06:36.184Z,6.27
2019-01-16T23:09:24.179Z,7.40
2019-01-16T23:12:13.223Z,8.37
2019-01-16T23:15:02.893Z,8.10
2019-01-16T23:17:53.629Z,7.57
2019-01-16T23:20:46.167Z,8.07
2019-01-16T23:23:34.315Z,8.23
2019-01-16T23:26:12.813Z,7.87
2019-01-16T23:29:15.713Z,7.27
2019-01-16T23:32:06.919Z,7.03
2019-01-16T23:34:50.368Z,6.90
2019-01-16T23:37:40.013Z,6.83
2019-01-16T23:40:32.283Z,5.87
2019-01-16T23:43:34.661Z,6.23
2019-01-16T23:46:22.602Z,6.50
2019-01-16T23:49:04.200Z,6.23
2019-01-16T23:51:52.653Z,6.93
2019-01-16T23:54:44.339Z,6.30
2019-01-16T23:57:34.619Z,4.57
